Genesee Depot, Wisconsin
Current Conditions -  °F | °C
As of 2:45 PM on Friday 31 Oct 2014 (Local Time) from KUES Reporting Station
Overcast Overcast  
Wind Chill: 25°   Ceiling: 4300
Heat Index: 36°   Visibility: 10mi
Dew Point: 19°   Wind: 18mph
Humidity: 52%   Direction: 340°NNW
Pressure: 30.28"   Gusts: 29mph
Location:  42.97°N, 88.37°W
Report Text: KUES 311945Z 34016G25KT 10SM BKN043 OVC049 02/M07 A3028
Loading
Personal Weather Stations






























Interactive Weather Map
Tropical Storm Tracking
New forecast layout! Learn more

10-Day Weather Forecast

Advertisements
Track Severe Weather on mobile